Time;durP1;ratioP1;P1;durP2;ratioP2;P2;SDS_P1;SDS_P2;PMS_P1;PMS_P2;Temp;Humidity;BMP_temperature;BMP_pressure;BME280_temperature;BME280_humidity;BME280_pressure;Samples;Min_cycle;Max_cycle;Signal;HPM_P1;HPM_P2
2021/06/14 00:00:50;;;;;;;7.67;4.27;;;;;;;;;;5050024;28;20192;-51
2021/06/14 00:03:16;;;;;;;4.70;3.60;;;;;;;;;;5050531;28;20232;-51
2021/06/14 00:05:43;;;;;;;5.60;4.23;;;;;;;;;;5051415;28;20707;-51
2021/06/14 00:08:14;;;;;;;3.93;3.50;;;;;;;;;;5048262;28;20280;-50
2021/06/14 00:10:40;;;;;;;4.13;3.47;;;;;;;;;;5050675;28;20189;-52
2021/06/14 00:13:07;;;;;;;4.27;3.87;;;;;;;;;;5050597;28;20188;-51
2021/06/14 00:15:33;;;;;;;4.87;3.50;;;;;;;;;;5050422;28;20257;-53
2021/06/14 00:17:59;;;;;;;4.57;3.10;;;;;;;;;;5050762;28;20181;-50
2021/06/14 00:20:25;;;;;;;3.93;3.37;;;;;;;;;;5051817;28;20188;-50
2021/06/14 00:22:52;;;;;;;3.67;3.17;;;;;;;;;;5050964;28;20181;-50
2021/06/14 00:25:23;;;;;;;4.10;3.70;;;;;;;;;;5050890;28;20177;-51
2021/06/14 00:27:50;;;;;;;5.73;3.73;;;;;;;;;;5050316;28;20177;-52
2021/06/14 00:30:21;;;;;;;5.07;3.80;;;;;;;;;;5048622;28;20178;-50
2021/06/14 00:32:47;;;;;;;3.90;3.40;;;;;;;;;;5048977;28;20208;-51
2021/06/14 00:35:13;;;;;;;3.77;3.27;;;;;;;;;;5050990;28;20679;-51
2021/06/14 00:37:39;;;;;;;4.57;3.60;;;;;;;;;;5031947;28;20177;-51
2021/06/14 00:40:06;;;;;;;4.47;3.13;;;;;;;;;;5049842;28;20180;-51
2021/06/14 00:42:32;;;;;;;3.63;3.23;;;;;;;;;;5050520;28;20181;-51
2021/06/14 00:44:58;;;;;;;4.33;3.83;;;;;;;;;;5050257;28;20177;-50
2021/06/14 00:47:24;;;;;;;4.07;3.13;;;;;;;;;;5049309;28;20189;-51
2021/06/14 00:49:50;;;;;;;5.90;3.40;;;;;;;;;;5050544;28;20196;-51
2021/06/14 00:52:16;;;;;;;4.40;4.00;;;;;;;;;;5049110;28;20201;-50
2021/06/14 00:54:42;;;;;;;5.50;3.43;;;;;;;;;;5046426;28;20182;-50
2021/06/14 00:57:08;;;;;;;4.10;3.40;;;;;;;;;;5046806;28;20678;-51
2021/06/14 00:59:34;;;;;;;4.70;3.33;;;;;;;;;;5042538;28;20284;-51
2021/06/14 01:02:00;;;;;;;3.40;3.10;;;;;;;;;;5050390;28;20209;-51
2021/06/14 01:04:26;;;;;;;3.53;3.23;;;;;;;;;;5048261;28;20647;-50
2021/06/14 01:06:52;;;;;;;4.67;3.50;;;;;;;;;;5049282;28;20177;-51
2021/06/14 01:09:18;;;;;;;4.53;3.63;;;;;;;;;;5049889;28;20242;-50
2021/06/14 01:11:53;;;;;;;3.63;3.27;;;;;;;;;;5049407;28;20200;-51
2021/06/14 01:14:19;;;;;;;4.57;3.47;;;;;;;;;;5049559;28;20216;-54
2021/06/14 01:16:55;;;;;;;4.03;3.27;;;;;;;;;;5047195;28;20177;-51
2021/06/14 01:19:40;;;;;;;4.30;3.70;;;;;;;;;;5028295;28;20177;-51
2021/06/14 01:22:21;;;;;;;6.83;3.90;;;;;;;;;;5043879;28;20544;-52
2021/06/14 01:24:55;;;;;;;3.47;3.17;;;;;;;;;;5050096;28;20276;-51
2021/06/14 01:27:39;;;;;;;3.90;3.00;;;;;;;;;;5031940;28;20193;-52
2021/06/14 01:30:07;;;;;;;5.33;3.70;;;;;;;;;;5049196;28;20559;-51
2021/06/14 01:32:33;;;;;;;4.83;3.50;;;;;;;;;;5048474;28;20216;-51
2021/06/14 01:34:59;;;;;;;4.53;3.63;;;;;;;;;;5049704;28;20243;-51
2021/06/14 01:37:26;;;;;;;3.67;3.37;;;;;;;;;;5050014;28;20742;-51
2021/06/14 01:39:53;;;;;;;4.10;3.70;;;;;;;;;;5049077;28;20181;-51
2021/06/14 01:42:19;;;;;;;4.63;3.87;;;;;;;;;;5049626;28;20185;-51
2021/06/14 01:44:47;;;;;;;4.03;3.37;;;;;;;;;;5049569;28;20207;-53
2021/06/14 01:47:14;;;;;;;3.97;3.53;;;;;;;;;;5046237;28;20683;-52
2021/06/14 01:49:41;;;;;;;3.87;3.43;;;;;;;;;;5045180;28;20177;-51
2021/06/14 01:52:07;;;;;;;4.57;3.30;;;;;;;;;;5049169;28;20196;-52
2021/06/14 01:54:33;;;;;;;4.80;3.53;;;;;;;;;;5053224;28;20177;-51
2021/06/14 01:56:59;;;;;;;4.13;3.37;;;;;;;;;;5047608;28;20185;-51
2021/06/14 01:59:27;;;;;;;3.47;3.10;;;;;;;;;;5048930;28;20197;-52
2021/06/14 02:01:54;;;;;;;5.60;3.13;;;;;;;;;;5049338;28;20200;-52
2021/06/14 02:04:20;;;;;;;3.60;3.30;;;;;;;;;;5051659;28;20260;-51
2021/06/14 02:06:48;;;;;;;4.83;3.30;;;;;;;;;;5052592;28;20196;-51
2021/06/14 02:09:16;;;;;;;4.73;3.63;;;;;;;;;;5050982;28;20197;-51
2021/06/14 02:11:44;;;;;;;3.90;3.30;;;;;;;;;;5053257;28;20200;-51
2021/06/14 02:14:12;;;;;;;3.87;3.40;;;;;;;;;;5051793;28;20234;-52
2021/06/14 02:16:38;;;;;;;4.37;3.47;;;;;;;;;;5047221;28;20180;-50
2021/06/14 02:19:05;;;;;;;4.47;3.73;;;;;;;;;;5052044;28;20505;-50
2021/06/14 02:21:31;;;;;;;3.50;3.10;;;;;;;;;;5052662;28;20187;-54
2021/06/14 02:23:57;;;;;;;4.30;3.90;;;;;;;;;;5044783;28;20192;-51
2021/06/14 02:26:23;;;;;;;6.80;3.83;;;;;;;;;;5052535;28;20595;-51
2021/06/14 02:28:49;;;;;;;5.20;3.47;;;;;;;;;;5052839;28;20185;-50
2021/06/14 02:31:16;;;;;;;3.73;3.43;;;;;;;;;;5053104;28;20683;-52
2021/06/14 02:33:45;;;;;;;3.47;3.17;;;;;;;;;;5033501;28;20508;-51
2021/06/14 02:36:11;;;;;;;3.53;3.23;;;;;;;;;;5052137;28;20181;-51
2021/06/14 02:38:38;;;;;;;5.80;3.50;;;;;;;;;;5052275;28;20201;-51
2021/06/14 02:41:04;;;;;;;3.60;3.20;;;;;;;;;;5051822;28;20555;-50
2021/06/14 02:43:30;;;;;;;3.73;3.07;;;;;;;;;;5051546;28;20189;-54
2021/06/14 02:45:57;;;;;;;4.83;4.07;;;;;;;;;;5053011;28;20664;-51
2021/06/14 02:48:24;;;;;;;4.60;3.33;;;;;;;;;;5040275;28;20184;-51
2021/06/14 02:50:50;;;;;;;4.53;3.17;;;;;;;;;;5051692;28;20613;-50
2021/06/14 02:53:17;;;;;;;5.37;3.67;;;;;;;;;;5052197;28;20188;-51
2021/06/14 02:55:49;;;;;;;4.07;3.20;;;;;;;;;;5051669;28;20260;-51
2021/06/14 02:58:15;;;;;;;4.73;3.53;;;;;;;;;;5052308;28;20560;-50
2021/06/14 03:00:41;;;;;;;4.23;3.00;;;;;;;;;;5052631;28;20188;-52
2021/06/14 03:03:08;;;;;;;3.60;3.17;;;;;;;;;;5050812;28;20193;-50
2021/06/14 03:05:35;;;;;;;4.97;3.77;;;;;;;;;;5052544;28;20232;-51
2021/06/14 03:08:01;;;;;;;3.50;2.97;;;;;;;;;;5051084;28;20659;-51
2021/06/14 03:10:30;;;;;;;3.93;3.20;;;;;;;;;;5033303;28;20220;-50
2021/06/14 03:12:57;;;;;;;4.27;3.70;;;;;;;;;;5049914;28;20684;-52
2021/06/14 03:15:24;;;;;;;3.73;3.30;;;;;;;;;;5051666;28;20288;-50
2021/06/14 03:17:52;;;;;;;3.40;3.10;;;;;;;;;;5051542;28;20177;-50
2021/06/14 03:20:19;;;;;;;4.93;3.33;;;;;;;;;;5051244;28;20589;-50
2021/06/14 03:22:45;;;;;;;4.00;3.40;;;;;;;;;;5052223;28;20177;-50
2021/06/14 03:25:12;;;;;;;3.27;2.90;;;;;;;;;;5051805;28;20783;-52
2021/06/14 03:27:38;;;;;;;5.90;3.40;;;;;;;;;;5050998;28;20218;-50
2021/06/14 03:30:05;;;;;;;3.40;2.87;;;;;;;;;;5051723;28;20176;-53
2021/06/14 03:32:31;;;;;;;4.43;2.90;;;;;;;;;;5047727;28;20216;-50
2021/06/14 03:34:57;;;;;;;4.23;2.87;;;;;;;;;;5048154;28;20181;-51
2021/06/14 03:37:23;;;;;;;4.67;3.50;;;;;;;;;;5051824;28;20547;-50
2021/06/14 03:39:49;;;;;;;4.07;3.17;;;;;;;;;;5050291;28;20185;-50
2021/06/14 03:42:19;;;;;;;5.27;3.87;;;;;;;;;;5050367;28;20618;-50
2021/06/14 03:44:46;;;;;;;3.20;2.80;;;;;;;;;;5051432;28;20188;-51
2021/06/14 03:47:12;;;;;;;3.53;3.13;;;;;;;;;;5050673;28;20190;-54
2021/06/14 03:49:38;;;;;;;4.30;3.27;;;;;;;;;;5049294;28;20666;-51
2021/06/14 03:52:04;;;;;;;3.67;3.20;;;;;;;;;;5046147;28;20276;-51
2021/06/14 03:54:30;;;;;;;3.73;3.10;;;;;;;;;;5049302;28;20189;-51
2021/06/14 03:56:56;;;;;;;5.37;3.40;;;;;;;;;;5048548;28;20177;-51
2021/06/14 03:59:22;;;;;;;5.07;2.83;;;;;;;;;;5050548;28;20280;-51
2021/06/14 04:01:48;;;;;;;3.43;3.03;;;;;;;;;;5050627;28;20713;-50
2021/06/14 04:06:59;;;;;;;3.60;3.20;;;;;;;;;;5050942;28;20469;-50
2021/06/14 04:09:25;;;;;;;3.33;3.03;;;;;;;;;;5048461;28;21024;-51
2021/06/14 04:11:51;;;;;;;3.63;3.08;;;;;;;;;;5048949;28;20527;-53
2021/06/14 04:14:17;;;;;;;3.83;3.10;;;;;;;;;;5047844;28;20216;-54
2021/06/14 04:16:43;;;;;;;3.83;3.13;;;;;;;;;;5049534;28;20745;-52
2021/06/14 04:19:09;;;;;;;3.27;2.97;;;;;;;;;;5050429;28;20632;-51
2021/06/14 04:21:35;;;;;;;4.30;3.30;;;;;;;;;;5050418;28;20185;-51
2021/06/14 04:24:01;;;;;;;4.43;3.27;;;;;;;;;;5050237;28;20181;-50
2021/06/14 04:26:27;;;;;;;4.60;3.27;;;;;;;;;;5051134;28;20189;-54
2021/06/14 04:28:53;;;;;;;3.20;2.90;;;;;;;;;;5050663;28;20180;-52
2021/06/14 04:31:20;;;;;;;3.07;2.83;;;;;;;;;;5051366;28;20212;-51
2021/06/14 04:33:46;;;;;;;4.87;3.27;;;;;;;;;;5048689;28;20181;-50
2021/06/14 04:36:12;;;;;;;3.93;3.20;;;;;;;;;;5049347;28;20510;-50
2021/06/14 04:38:38;;;;;;;4.70;3.23;;;;;;;;;;5049995;28;20178;-54
2021/06/14 04:41:04;;;;;;;3.00;2.80;;;;;;;;;;5048563;28;20181;-51
2021/06/14 04:43:30;;;;;;;4.77;3.03;;;;;;;;;;5043041;28;20632;-51
2021/06/14 04:45:56;;;;;;;5.17;3.27;;;;;;;;;;5048093;28;20256;-51
2021/06/14 04:48:22;;;;;;;3.50;3.20;;;;;;;;;;5050113;28;20176;-50
2021/06/14 04:50:49;;;;;;;3.90;3.27;;;;;;;;;;5048808;28;20669;-54
2021/06/14 04:53:15;;;;;;;4.30;3.30;;;;;;;;;;5048625;28;20207;-50
2021/06/14 04:55:41;;;;;;;4.50;3.30;;;;;;;;;;5045463;28;20533;-50
2021/06/14 04:58:07;;;;;;;4.13;2.93;;;;;;;;;;5050209;28;20238;-51
2021/06/14 05:00:34;;;;;;;3.90;3.10;;;;;;;;;;5045655;28;20256;-52
2021/06/14 05:03:00;;;;;;;3.83;3.53;;;;;;;;;;5048927;28;20284;-50
2021/06/14 05:05:26;;;;;;;3.70;3.13;;;;;;;;;;5030151;28;20208;-51
2021/06/14 05:07:52;;;;;;;4.77;3.53;;;;;;;;;;5045483;28;20182;-51
2021/06/14 05:10:18;;;;;;;3.87;3.20;;;;;;;;;;5050170;28;20330;-56
2021/06/14 05:12:44;;;;;;;3.27;2.97;;;;;;;;;;5049232;28;20287;-51
2021/06/14 05:15:10;;;;;;;3.07;2.77;;;;;;;;;;5049385;28;20214;-51
2021/06/14 05:17:37;;;;;;;5.00;2.87;;;;;;;;;;5047668;28;20184;-51
2021/06/14 05:20:04;;;;;;;3.33;2.90;;;;;;;;;;5048830;28;20192;-50
2021/06/14 05:22:30;;;;;;;3.80;3.23;;;;;;;;;;5049023;28;20224;-51
2021/06/14 05:24:56;;;;;;;3.53;3.03;;;;;;;;;;5045380;28;20231;-50
2021/06/14 05:27:22;;;;;;;5.23;3.57;;;;;;;;;;5048470;28;20181;-50
2021/06/14 05:29:48;;;;;;;4.37;3.10;;;;;;;;;;5049980;28;20176;-50
2021/06/14 05:32:14;;;;;;;4.53;3.43;;;;;;;;;;5047970;28;20208;-53
2021/06/14 05:34:40;;;;;;;3.67;3.37;;;;;;;;;;5047491;28;20177;-51
2021/06/14 05:37:06;;;;;;;3.93;3.27;;;;;;;;;;5049439;28;20637;-52
2021/06/14 05:39:32;;;;;;;4.80;3.23;;;;;;;;;;5049433;28;20514;-51
2021/06/14 05:41:58;;;;;;;4.50;3.40;;;;;;;;;;5047988;28;20182;-52
2021/06/14 05:44:27;;;;;;;3.87;3.30;;;;;;;;;;5047392;28;20192;-51
2021/06/14 05:46:53;;;;;;;4.73;3.43;;;;;;;;;;5046625;28;20192;-51
2021/06/14 05:49:19;;;;;;;5.57;3.20;;;;;;;;;;5047217;28;20216;-52
2021/06/14 05:51:45;;;;;;;4.60;3.10;;;;;;;;;;5048418;28;20250;-52
2021/06/14 05:54:11;;;;;;;5.03;3.33;;;;;;;;;;5029692;28;20183;-51
2021/06/14 05:56:37;;;;;;;6.17;3.67;;;;;;;;;;5047011;28;20249;-52
2021/06/14 05:59:05;;;;;;;4.27;2.80;;;;;;;;;;5030335;28;20624;-51
2021/06/14 06:01:31;;;;;;;5.60;3.20;;;;;;;;;;5051484;28;20431;-54
2021/06/14 06:03:57;;;;;;;5.67;3.20;;;;;;;;;;5050715;28;20173;-53
2021/06/14 06:06:23;;;;;;;4.73;3.37;;;;;;;;;;5051321;28;20177;-54
2021/06/14 06:08:49;;;;;;;4.27;3.53;;;;;;;;;;5049495;28;20601;-56
2021/06/14 06:11:15;;;;;;;3.63;2.97;;;;;;;;;;5049780;28;20562;-54
2021/06/14 06:13:42;;;;;;;6.70;3.37;;;;;;;;;;5049779;28;20184;-54
2021/06/14 06:16:08;;;;;;;5.47;3.17;;;;;;;;;;5032275;28;20218;-54
2021/06/14 06:18:34;;;;;;;3.47;3.10;;;;;;;;;;5046791;28;20567;-57
2021/06/14 06:21:00;;;;;;;5.40;3.17;;;;;;;;;;5050572;28;20285;-53
2021/06/14 06:23:27;;;;;;;4.67;2.87;;;;;;;;;;5046619;28;20177;-55
2021/06/14 06:25:53;;;;;;;6.07;2.80;;;;;;;;;;5044535;28;20181;-51
2021/06/14 06:28:19;;;;;;;3.80;2.83;;;;;;;;;;5046961;28;20632;-52
2021/06/14 06:30:45;;;;;;;3.27;2.47;;;;;;;;;;5047697;28;20291;-52
2021/06/14 06:33:11;;;;;;;4.30;3.00;;;;;;;;;;5028388;28;20208;-51
2021/06/14 06:35:37;;;;;;;6.63;3.43;;;;;;;;;;5047523;28;20181;-52
2021/06/14 06:38:05;;;;;;;6.13;3.17;;;;;;;;;;5048930;28;20658;-52
2021/06/14 06:40:32;;;;;;;2.90;2.67;;;;;;;;;;5051439;28;20181;-51
2021/06/14 06:42:58;;;;;;;7.00;3.23;;;;;;;;;;5051438;28;20235;-51
2021/06/14 06:45:25;;;;;;;5.00;3.00;;;;;;;;;;5051996;28;20189;-52
2021/06/14 06:47:51;;;;;;;7.07;3.43;;;;;;;;;;5049900;28;20189;-53
2021/06/14 06:50:18;;;;;;;4.23;2.73;;;;;;;;;;5051767;28;20204;-53
2021/06/14 06:52:44;;;;;;;7.20;2.87;;;;;;;;;;5050170;28;20625;-56
2021/06/14 06:55:11;;;;;;;4.13;3.27;;;;;;;;;;5050306;28;20310;-53
2021/06/14 06:57:38;;;;;;;6.40;3.20;;;;;;;;;;5049791;28;20223;-57
2021/06/14 07:00:08;;;;;;;4.93;3.00;;;;;;;;;;5028118;28;20223;-55
2021/06/14 07:02:34;;;;;;;4.97;3.03;;;;;;;;;;5049303;28;20284;-58
2021/06/14 07:05:00;;;;;;;6.30;3.27;;;;;;;;;;5051030;28;20511;-56
2021/06/14 07:07:26;;;;;;;5.87;3.37;;;;;;;;;;5051592;28;20212;-55
2021/06/14 07:09:52;;;;;;;4.23;3.07;;;;;;;;;;5050154;28;20184;-55
2021/06/14 07:12:19;;;;;;;6.87;3.60;;;;;;;;;;5049710;28;20205;-56
2021/06/14 07:14:45;;;;;;;6.57;3.23;;;;;;;;;;5051510;28;20220;-56
2021/06/14 07:17:11;;;;;;;6.63;2.93;;;;;;;;;;5049521;28;20185;-56
2021/06/14 07:19:37;;;;;;;4.37;3.03;;;;;;;;;;5033477;28;20236;-54
2021/06/14 07:22:04;;;;;;;7.77;3.50;;;;;;;;;;5051105;28;20189;-53
2021/06/14 07:24:30;;;;;;;5.97;3.20;;;;;;;;;;5032620;28;20181;-56
2021/06/14 07:26:56;;;;;;;5.40;3.10;;;;;;;;;;5051210;28;20181;-58
2021/06/14 07:29:22;;;;;;;5.83;3.07;;;;;;;;;;5050206;28;20518;-56
2021/06/14 07:31:48;;;;;;;6.43;3.17;;;;;;;;;;5050440;28;20197;-57
2021/06/14 07:34:14;;;;;;;4.47;3.20;;;;;;;;;;5048996;28;20177;-57
2021/06/14 07:36:40;;;;;;;7.60;3.53;;;;;;;;;;5032704;28;20219;-56
2021/06/14 07:39:06;;;;;;;4.47;3.20;;;;;;;;;;5050636;28;20181;-61
2021/06/14 07:41:32;;;;;;;6.77;3.53;;;;;;;;;;5049974;28;20185;-59
2021/06/14 07:43:59;;;;;;;7.83;3.07;;;;;;;;;;5050433;28;20182;-60
2021/06/14 07:46:25;;;;;;;7.77;3.63;;;;;;;;;;5050641;28;20239;-59
2021/06/14 07:48:51;;;;;;;4.17;2.90;;;;;;;;;;5031175;28;20201;-59
2021/06/14 07:51:17;;;;;;;3.43;2.67;;;;;;;;;;5032526;28;20640;-57
2021/06/14 07:53:43;;;;;;;7.73;2.83;;;;;;;;;;5044818;28;20166;-56
2021/06/14 07:56:10;;;;;;;5.43;3.57;;;;;;;;;;5051081;28;20624;-56
2021/06/14 07:58:36;;;;;;;9.23;3.50;;;;;;;;;;5048700;28;20553;-58
2021/06/14 08:01:03;;;;;;;6.30;3.03;;;;;;;;;;5050777;28;20607;-57
2021/06/14 08:03:29;;;;;;;7.07;2.97;;;;;;;;;;5030050;28;20657;-57
2021/06/14 08:05:56;;;;;;;6.47;3.10;;;;;;;;;;5048542;28;20174;-59
2021/06/14 08:08:22;;;;;;;5.40;2.83;;;;;;;;;;5049891;28;20177;-59
2021/06/14 08:10:50;;;;;;;3.73;2.77;;;;;;;;;;5050337;28;20633;-58
2021/06/14 08:13:17;;;;;;;5.27;2.97;;;;;;;;;;5049969;28;20200;-57
2021/06/14 08:15:43;;;;;;;4.63;2.90;;;;;;;;;;5032044;28;20255;-59
2021/06/14 08:26:08;;;;;;;6.50;3.53;;;;;;;;;;5044000;28;20180;-59
2021/06/14 08:28:34;;;;;;;6.73;3.13;;;;;;;;;;5013116;28;20628;-59
2021/06/14 08:31:03;;;;;;;5.93;3.30;;;;;;;;;;5032057;28;20621;-58
2021/06/14 08:33:29;;;;;;;3.73;2.90;;;;;;;;;;5048890;28;20181;-58
2021/06/14 08:35:55;;;;;;;5.80;3.17;;;;;;;;;;5031563;28;20173;-58
2021/06/14 08:38:21;;;;;;;5.10;3.03;;;;;;;;;;5049589;28;20178;-60
2021/06/14 08:40:47;;;;;;;5.93;3.27;;;;;;;;;;5048240;28;20191;-60
2021/06/14 08:43:14;;;;;;;5.43;3.30;;;;;;;;;;5049251;28;20170;-59
2021/06/14 08:45:41;;;;;;;4.57;3.07;;;;;;;;;;5031284;28;20184;-60
2021/06/14 08:48:08;;;;;;;6.73;3.77;;;;;;;;;;5048372;28;20557;-60
2021/06/14 08:50:34;;;;;;;4.23;3.00;;;;;;;;;;5049507;28;20183;-60
2021/06/14 08:53:01;;;;;;;3.70;3.17;;;;;;;;;;5048827;28;20200;-60
2021/06/14 08:55:27;;;;;;;3.50;2.77;;;;;;;;;;5048702;28;20203;-60
2021/06/14 08:57:53;;;;;;;6.30;3.20;;;;;;;;;;5048444;28;20166;-60
2021/06/14 09:00:27;;;;;;;4.73;3.20;;;;;;;;;;5017265;28;20188;-59
2021/06/14 09:02:53;;;;;;;5.73;3.40;;;;;;;;;;5028644;28;20689;-59
2021/06/14 09:05:21;;;;;;;3.67;2.90;;;;;;;;;;5049597;28;20264;-60
2021/06/14 09:07:48;;;;;;;5.27;3.53;;;;;;;;;;5046831;28;20184;-60
2021/06/14 09:10:22;;;;;;;5.43;3.23;;;;;;;;;;5048408;28;20195;-60
2021/06/14 09:12:49;;;;;;;5.30;3.47;;;;;;;;;;5046911;28;20304;-59
2021/06/14 09:15:15;;;;;;;7.10;3.33;;;;;;;;;;5048660;28;20255;-60
2021/06/14 09:17:51;;;;;;;4.57;3.20;;;;;;;;;;5048518;28;20185;-61
2021/06/14 09:20:17;;;;;;;4.87;3.53;;;;;;;;;;5041338;28;20176;-60
2021/06/14 09:22:44;;;;;;;5.30;3.93;;;;;;;;;;5048119;28;20189;-62
2021/06/14 09:25:17;;;;;;;4.90;3.10;;;;;;;;;;5048516;28;20701;-61
2021/06/14 09:27:47;;;;;;;4.93;3.40;;;;;;;;;;5048299;28;20190;-62
2021/06/14 09:30:16;;;;;;;6.40;3.40;;;;;;;;;;5048543;28;20192;-64
2021/06/14 09:32:57;;;;;;;4.90;3.10;;;;;;;;;;5047908;28;20204;-63
2021/06/14 09:35:24;;;;;;;6.73;3.20;;;;;;;;;;5041067;28;20181;-61
2021/06/14 09:38:07;;;;;;;6.77;3.30;;;;;;;;;;5048204;28;20632;-60
2021/06/14 09:40:44;;;;;;;4.20;3.10;;;;;;;;;;5041466;28;20535;-60
2021/06/14 09:43:22;;;;;;;5.50;3.53;;;;;;;;;;5047303;28;20666;-59
2021/06/14 09:45:48;;;;;;;6.13;2.83;;;;;;;;;;5048708;28;20179;-61
2021/06/14 09:48:15;;;;;;;8.13;3.87;;;;;;;;;;5047231;28;20608;-60
2021/06/14 09:50:43;;;;;;;3.97;2.97;;;;;;;;;;5047439;28;20186;-60
2021/06/14 09:53:10;;;;;;;7.53;3.10;;;;;;;;;;5029895;28;20197;-61
2021/06/14 09:55:37;;;;;;;5.73;2.83;;;;;;;;;;5030327;28;20578;-61
2021/06/14 09:58:14;;;;;;;6.50;2.83;;;;;;;;;;5029511;28;20223;-61
2021/06/14 10:00:47;;;;;;;3.67;3.13;;;;;;;;;;5024143;28;20170;-60
2021/06/14 10:03:13;;;;;;;3.57;2.83;;;;;;;;;;5047345;28;20203;-60
2021/06/14 10:05:54;;;;;;;4.43;3.50;;;;;;;;;;5030529;28;20188;-61
2021/06/14 10:08:24;;;;;;;6.43;3.00;;;;;;;;;;5047547;28;20200;-62
2021/06/14 10:10:59;;;;;;;6.33;3.50;;;;;;;;;;5049254;28;20188;-61
2021/06/14 10:13:29;;;;;;;8.40;3.50;;;;;;;;;;5050628;28;20520;-61
2021/06/14 10:15:58;;;;;;;4.10;3.60;;;;;;;;;;5034208;28;20217;-62
2021/06/14 10:18:30;;;;;;;3.53;3.03;;;;;;;;;;5032705;28;20203;-61
2021/06/14 10:20:56;;;;;;;4.33;3.00;;;;;;;;;;5052353;28;20166;-60
2021/06/14 10:23:22;;;;;;;3.27;2.80;;;;;;;;;;5033937;28;20260;-61
2021/06/14 10:25:48;;;;;;;3.07;2.37;;;;;;;;;;5052420;28;20273;-61
2021/06/14 10:28:14;;;;;;;5.00;3.37;;;;;;;;;;5051670;28;20401;-62
2021/06/14 10:30:40;;;;;;;7.43;3.17;;;;;;;;;;5034381;28;20721;-62
2021/06/14 10:33:06;;;;;;;8.90;2.47;;;;;;;;;;5051011;28;20533;-61
2021/06/14 10:35:33;;;;;;;7.53;2.87;;;;;;;;;;5051652;28;20227;-62
2021/06/14 10:38:01;;;;;;;4.03;2.40;;;;;;;;;;5051572;28;20689;-60
2021/06/14 10:40:28;;;;;;;6.13;3.47;;;;;;;;;;5051989;28;20322;-62
2021/06/14 10:42:54;;;;;;;6.27;3.60;;;;;;;;;;5051032;28;20185;-60
2021/06/14 10:45:23;;;;;;;6.27;3.30;;;;;;;;;;5050246;28;20629;-60
2021/06/14 10:47:51;;;;;;;5.23;3.43;;;;;;;;;;5049597;28;20192;-63
2021/06/14 10:50:21;;;;;;;3.77;3.00;;;;;;;;;;5050593;28;20177;-61
2021/06/14 10:52:47;;;;;;;6.37;3.50;;;;;;;;;;5049498;28;20197;-60
2021/06/14 10:55:34;;;;;;;6.70;3.40;;;;;;;;;;5032307;28;20177;-60
2021/06/14 10:58:03;;;;;;;7.40;3.57;;;;;;;;;;5051633;28;20196;-60
2021/06/14 11:00:31;;;;;;;4.43;2.90;;;;;;;;;;5051992;28;20189;-62
2021/06/14 11:02:58;;;;;;;4.60;2.93;;;;;;;;;;5050862;28;20207;-59
2021/06/14 11:05:43;;;;;;;7.20;3.40;;;;;;;;;;5051586;28;20188;-60
2021/06/14 11:08:13;;;;;;;6.37;3.30;;;;;;;;;;5050656;28;20181;-60
2021/06/14 11:10:39;;;;;;;4.60;3.47;;;;;;;;;;5051458;28;20268;-60
2021/06/14 11:13:09;;;;;;;4.67;2.73;;;;;;;;;;5050745;28;20729;-60
2021/06/14 11:15:36;;;;;;;4.57;3.30;;;;;;;;;;5044659;28;20304;-61
2021/06/14 11:18:06;;;;;;;5.97;3.07;;;;;;;;;;5004345;28;20183;-60
2021/06/14 11:20:39;;;;;;;7.17;3.80;;;;;;;;;;5045090;28;20183;-60
2021/06/14 11:23:06;;;;;;;4.60;3.20;;;;;;;;;;5030149;28;20637;-61
2021/06/14 11:25:41;;;;;;;4.17;3.00;;;;;;;;;;5008276;28;20173;-60
2021/06/14 11:28:10;;;;;;;6.33;3.00;;;;;;;;;;5012748;28;20187;-61
2021/06/14 11:30:37;;;;;;;7.67;3.87;;;;;;;;;;4999529;28;20233;-61
2021/06/14 11:33:05;;;;;;;4.13;2.93;;;;;;;;;;5002554;28;20202;-62
2021/06/14 11:35:32;;;;;;;4.13;3.27;;;;;;;;;;5019296;28;20610;-62
2021/06/14 11:38:04;;;;;;;6.70;3.27;;;;;;;;;;5030929;28;20215;-62
2021/06/14 11:40:31;;;;;;;5.77;3.10;;;;;;;;;;5016507;28;20180;-64
2021/06/14 11:42:59;;;;;;;8.93;3.83;;;;;;;;;;5035341;28;20234;-60
2021/06/14 11:45:38;;;;;;;3.77;3.00;;;;;;;;;;5037215;28;20187;-62
2021/06/14 11:48:05;;;;;;;4.40;3.53;;;;;;;;;;5034995;28;20176;-61
2021/06/14 11:50:32;;;;;;;3.83;3.17;;;;;;;;;;5021811;28;20786;-63
2021/06/14 11:53:03;;;;;;;3.73;3.07;;;;;;;;;;5027365;28;20239;-61
2021/06/14 11:55:30;;;;;;;6.33;3.73;;;;;;;;;;5022112;28;20190;-62
2021/06/14 11:57:57;;;;;;;5.03;3.47;;;;;;;;;;5022223;28;20231;-62
2021/06/14 12:00:31;;;;;;;6.37;3.63;;;;;;;;;;5027846;28;20544;-62
2021/06/14 12:02:57;;;;;;;7.77;3.43;;;;;;;;;;5023775;28;20562;-61
2021/06/14 12:05:33;;;;;;;7.10;4.10;;;;;;;;;;5024130;28;20422;-61
2021/06/14 12:08:00;;;;;;;5.00;3.57;;;;;;;;;;5006001;28;20648;-61
2021/06/14 12:10:26;;;;;;;5.33;3.50;;;;;;;;;;5002048;28;20192;-62
2021/06/14 12:13:06;;;;;;;9.03;4.23;;;;;;;;;;5024449;28;20211;-61
2021/06/14 12:15:35;;;;;;;7.40;3.50;;;;;;;;;;5007394;28;20269;-61
2021/06/14 12:18:01;;;;;;;6.87;3.30;;;;;;;;;;5020225;28;20185;-62
2021/06/14 12:20:29;;;;;;;4.97;3.83;;;;;;;;;;5038861;28;20271;-62
2021/06/14 12:23:15;;;;;;;5.57;3.60;;;;;;;;;;5019273;28;20183;-61
2021/06/14 12:25:48;;;;;;;5.97;3.60;;;;;;;;;;5019438;28;20227;-64
2021/06/14 12:28:16;;;;;;;10.93;3.43;;;;;;;;;;5007718;28;20665;-61
2021/06/14 12:30:43;;;;;;;6.70;3.80;;;;;;;;;;5032089;28;20188;-60
2021/06/14 12:33:10;;;;;;;5.37;3.70;;;;;;;;;;5024903;28;20211;-60
2021/06/14 12:35:37;;;;;;;4.73;3.27;;;;;;;;;;5034075;28;20175;-61
2021/06/14 12:38:10;;;;;;;8.33;3.40;;;;;;;;;;5019146;28;20181;-61
2021/06/14 12:40:38;;;;;;;6.43;3.40;;;;;;;;;;5022577;28;20242;-61
2021/06/14 12:43:06;;;;;;;6.20;4.70;;;;;;;;;;5001793;28;20201;-61
2021/06/14 12:45:33;;;;;;;5.67;3.40;;;;;;;;;;5032990;28;20179;-61
2021/06/14 12:47:59;;;;;;;8.27;4.00;;;;;;;;;;5028384;28;20686;-62
2021/06/14 12:50:27;;;;;;;6.00;3.97;;;;;;;;;;5041238;28;20211;-61
2021/06/14 12:52:57;;;;;;;6.37;3.97;;;;;;;;;;5036980;28;20233;-61
2021/06/14 12:55:24;;;;;;;5.63;3.70;;;;;;;;;;5025315;28;20180;-61
2021/06/14 12:57:51;;;;;;;8.40;3.70;;;;;;;;;;5041645;28;20192;-62
2021/06/14 13:00:18;;;;;;;7.77;4.67;;;;;;;;;;5022955;28;20359;-64
2021/06/14 13:02:49;;;;;;;7.43;3.73;;;;;;;;;;5023740;28;20209;-61
2021/06/14 13:05:19;;;;;;;5.93;3.27;;;;;;;;;;5019825;28;20185;-61
2021/06/14 13:08:12;;;;;;;8.87;3.53;;;;;;;;;;5024625;28;20195;-62
2021/06/14 13:10:43;;;;;;;4.03;3.63;;;;;;;;;;5023851;28;20194;-62
2021/06/14 13:13:12;;;;;;;5.57;4.10;;;;;;;;;;5028127;28;20205;-62
2021/06/14 13:15:39;;;;;;;6.10;4.17;;;;;;;;;;5043166;28;20294;-61
2021/06/14 13:18:05;;;;;;;7.47;3.63;;;;;;;;;;5046765;28;20278;-61
2021/06/14 13:20:34;;;;;;;5.03;3.40;;;;;;;;;;5048754;28;20204;-62
2021/06/14 13:23:09;;;;;;;7.17;3.50;;;;;;;;;;5030677;28;20235;-61
2021/06/14 13:25:36;;;;;;;7.13;3.50;;;;;;;;;;5048419;28;20188;-62
2021/06/14 13:28:03;;;;;;;11.33;4.10;;;;;;;;;;5048506;28;20196;-63
2021/06/14 13:30:47;;;;;;;8.93;4.13;;;;;;;;;;5048396;28;20190;-62
2021/06/14 13:33:20;;;;;;;7.63;3.97;;;;;;;;;;5028733;28;20224;-62
2021/06/14 13:35:51;;;;;;;8.57;4.27;;;;;;;;;;5048295;28;20187;-62
2021/06/14 13:38:25;;;;;;;7.10;3.87;;;;;;;;;;5030075;28;20279;-61
2021/06/14 13:40:52;;;;;;;12.70;3.27;;;;;;;;;;5030482;28;20186;-62
2021/06/14 13:43:26;;;;;;;3.53;3.20;;;;;;;;;;5048325;28;20687;-63
2021/06/14 13:45:52;;;;;;;9.30;4.10;;;;;;;;;;5049130;28;20188;-61
2021/06/14 13:48:20;;;;;;;9.70;3.60;;;;;;;;;;5030064;28;20196;-62
2021/06/14 13:50:47;;;;;;;6.37;3.50;;;;;;;;;;5031031;28;20204;-62
2021/06/14 13:53:14;;;;;;;7.63;3.50;;;;;;;;;;5049275;28;20197;-62
2021/06/14 13:55:54;;;;;;;6.23;3.30;;;;;;;;;;5031958;28;20547;-62
2021/06/14 13:58:31;;;;;;;5.07;3.43;;;;;;;;;;5049056;28;20180;-63
2021/06/14 14:01:05;;;;;;;5.40;3.70;;;;;;;;;;5049713;28;20682;-63
2021/06/14 14:03:31;;;;;;;7.88;3.70;;;;;;;;;;5042711;28;20174;-61
2021/06/14 14:05:57;;;;;;;6.63;3.85;;;;;;;;;;5030667;28;20192;-60
2021/06/14 14:08:23;;;;;;;4.78;3.03;;;;;;;;;;5049238;28;20190;-61
2021/06/14 14:10:50;;;;;;;8.63;3.90;;;;;;;;;;5048042;28;20180;-61
2021/06/14 14:13:19;;;;;;;6.95;3.20;;;;;;;;;;5048211;28;20584;-60
2021/06/14 14:15:46;;;;;;;7.80;3.70;;;;;;;;;;5049125;28;20222;-60
2021/06/14 14:18:12;;;;;;;9.65;4.05;;;;;;;;;;5029221;28;20182;-60
2021/06/14 14:20:39;;;;;;;5.10;3.22;;;;;;;;;;5045106;28;20268;-61
2021/06/14 14:23:05;;;;;;;6.38;3.60;;;;;;;;;;5049502;28;20269;-61
2021/06/14 14:25:31;;;;;;;10.80;4.00;;;;;;;;;;5049261;28;20178;-60
2021/06/14 14:27:58;;;;;;;8.75;4.00;;;;;;;;;;5031492;28;20687;-60
2021/06/14 14:30:32;;;;;;;5.50;4.00;;;;;;;;;;5048582;28;20857;-63
2021/06/14 14:32:58;;;;;;;5.60;3.88;;;;;;;;;;5045189;28;20451;-60
2021/06/14 14:35:29;;;;;;;7.07;4.15;;;;;;;;;;5032062;28;20182;-62
2021/06/14 14:38:01;;;;;;;5.20;3.83;;;;;;;;;;5028874;28;20215;-62
2021/06/14 14:40:29;;;;;;;7.23;3.77;;;;;;;;;;5048937;28;20177;-62
2021/06/14 14:42:56;;;;;;;8.73;4.17;;;;;;;;;;5048905;28;20179;-61
2021/06/14 14:45:23;;;;;;;5.90;4.03;;;;;;;;;;5027418;28;20181;-60
2021/06/14 14:47:58;;;;;;;4.88;3.75;;;;;;;;;;5042956;28;20181;-61
2021/06/14 14:50:24;;;;;;;5.47;3.57;;;;;;;;;;5048482;28;20165;-61
2021/06/14 14:52:50;;;;;;;5.47;4.50;;;;;;;;;;5047439;28;20198;-60
2021/06/14 14:55:21;;;;;;;5.83;4.17;;;;;;;;;;5031086;28;20639;-61
2021/06/14 14:57:47;;;;;;;4.83;3.80;;;;;;;;;;5029540;28;20174;-61